sensor_id;sensor_type;location;lat;lon;timestamp;temperature;humidity
15394;DHT22;7795;47.986;11.868;2022-10-16T00:01:05;16.30;82.30
15394;DHT22;7795;47.986;11.868;2022-10-16T00:03:31;16.30;82.40
15394;DHT22;7795;47.986;11.868;2022-10-16T00:05:59;16.20;82.30
15394;DHT22;7795;47.986;11.868;2022-10-16T00:08:25;16.20;82.40
15394;DHT22;7795;47.986;11.868;2022-10-16T00:10:51;16.20;82.30
15394;DHT22;7795;47.986;11.868;2022-10-16T00:13:17;16.10;82.20
15394;DHT22;7795;47.986;11.868;2022-10-16T00:15:46;16.10;82.30
15394;DHT22;7795;47.986;11.868;2022-10-16T00:18:13;16.10;82.40
15394;DHT22;7795;47.986;11.868;2022-10-16T00:20:40;16.10;82.40
15394;DHT22;7795;47.986;11.868;2022-10-16T00:23:05;16.00;82.40
15394;DHT22;7795;47.986;11.868;2022-10-16T00:25:31;16.00;82.40
15394;DHT22;7795;47.986;11.868;2022-10-16T00:27:58;15.90;82.40
15394;DHT22;7795;47.986;11.868;2022-10-16T00:30:24;15.90;82.30
15394;DHT22;7795;47.986;11.868;2022-10-16T00:32:51;15.90;82.40
15394;DHT22;7795;47.986;11.868;2022-10-16T00:35:17;15.90;82.40
15394;DHT22;7795;47.986;11.868;2022-10-16T00:37:42;15.80;82.30
15394;DHT22;7795;47.986;11.868;2022-10-16T00:40:09;15.80;82.30
15394;DHT22;7795;47.986;11.868;2022-10-16T00:42:35;15.80;82.30
15394;DHT22;7795;47.986;11.868;2022-10-16T00:45:01;15.70;82.30
15394;DHT22;7795;47.986;11.868;2022-10-16T00:47:29;15.70;82.40
15394;DHT22;7795;47.986;11.868;2022-10-16T00:50:01;15.70;82.40
15394;DHT22;7795;47.986;11.868;2022-10-16T00:52:27;15.70;82.40
15394;DHT22;7795;47.986;11.868;2022-10-16T00:54:54;15.60;82.30
15394;DHT22;7795;47.986;11.868;2022-10-16T00:57:21;15.60;82.30
15394;DHT22;7795;47.986;11.868;2022-10-16T00:59:46;15.60;82.30
15394;DHT22;7795;47.986;11.868;2022-10-16T01:02:15;15.50;82.30
15394;DHT22;7795;47.986;11.868;2022-10-16T01:04:43;15.50;82.20
15394;DHT22;7795;47.986;11.868;2022-10-16T01:07:16;15.50;82.30
15394;DHT22;7795;47.986;11.868;2022-10-16T01:09:57;15.50;82.30
15394;DHT22;7795;47.986;11.868;2022-10-16T01:12:33;15.40;82.30
15394;DHT22;7795;47.986;11.868;2022-10-16T01:15:10;15.40;82.40
15394;DHT22;7795;47.986;11.868;2022-10-16T01:17:43;15.40;82.40
15394;DHT22;7795;47.986;11.868;2022-10-16T01:20:17;15.40;82.40
15394;DHT22;7795;47.986;11.868;2022-10-16T01:22:59;15.30;82.40
15394;DHT22;7795;47.986;11.868;2022-10-16T01:28:15;15.30;82.50
15394;DHT22;7795;47.986;11.868;2022-10-16T01:30:44;15.30;82.50
15394;DHT22;7795;47.986;11.868;2022-10-16T01:33:14;15.30;83.30
15394;DHT22;7795;47.986;11.868;2022-10-16T01:35:44;15.30;82.60
15394;DHT22;7795;47.986;11.868;2022-10-16T01:38:15;15.30;82.60
15394;DHT22;7795;47.986;11.868;2022-10-16T01:40:46;15.20;82.50
15394;DHT22;7795;47.986;11.868;2022-10-16T01:43:16;15.20;82.50
15394;DHT22;7795;47.986;11.868;2022-10-16T01:45:45;15.20;82.50
15394;DHT22;7795;47.986;11.868;2022-10-16T01:48:12;15.20;82.50
15394;DHT22;7795;47.986;11.868;2022-10-16T01:50:41;15.20;82.50
15394;DHT22;7795;47.986;11.868;2022-10-16T01:53:10;15.10;82.50
15394;DHT22;7795;47.986;11.868;2022-10-16T01:55:40;15.10;82.50
15394;DHT22;7795;47.986;11.868;2022-10-16T01:58:11;15.10;82.60
15394;DHT22;7795;47.986;11.868;2022-10-16T02:00:42;15.10;82.50
15394;DHT22;7795;47.986;11.868;2022-10-16T02:03:11;15.10;82.50
15394;DHT22;7795;47.986;11.868;2022-10-16T02:05:40;15.00;82.30
15394;DHT22;7795;47.986;11.868;2022-10-16T02:08:06;15.00;82.30
15394;DHT22;7795;47.986;11.868;2022-10-16T02:10:33;15.00;82.30
15394;DHT22;7795;47.986;11.868;2022-10-16T02:13:05;15.00;82.30
15394;DHT22;7795;47.986;11.868;2022-10-16T02:15:31;14.90;82.30
15394;DHT22;7795;47.986;11.868;2022-10-16T02:17:58;14.90;82.30
15394;DHT22;7795;47.986;11.868;2022-10-16T02:20:27;14.90;82.30
15394;DHT22;7795;47.986;11.868;2022-10-16T02:22:54;14.90;82.40
15394;DHT22;7795;47.986;11.868;2022-10-16T02:25:24;14.80;83.10
15394;DHT22;7795;47.986;11.868;2022-10-16T02:27:54;14.80;82.50
15394;DHT22;7795;47.986;11.868;2022-10-16T02:30:25;14.80;82.50
15394;DHT22;7795;47.986;11.868;2022-10-16T02:32:51;14.70;82.40
15394;DHT22;7795;47.986;11.868;2022-10-16T02:35:21;14.70;82.50
15394;DHT22;7795;47.986;11.868;2022-10-16T02:37:47;14.70;82.50
15394;DHT22;7795;47.986;11.868;2022-10-16T02:40:14;14.70;82.50
15394;DHT22;7795;47.986;11.868;2022-10-16T02:42:41;14.70;82.50
15394;DHT22;7795;47.986;11.868;2022-10-16T02:45:08;14.60;82.40
15394;DHT22;7795;47.986;11.868;2022-10-16T02:47:34;14.60;82.40
15394;DHT22;7795;47.986;11.868;2022-10-16T02:50:00;14.60;82.30
15394;DHT22;7795;47.986;11.868;2022-10-16T02:52:27;14.60;82.40
15394;DHT22;7795;47.986;11.868;2022-10-16T02:54:53;14.60;82.50
15394;DHT22;7795;47.986;11.868;2022-10-16T02:57:18;14.50;82.50
15394;DHT22;7795;47.986;11.868;2022-10-16T02:59:44;14.50;82.50
15394;DHT22;7795;47.986;11.868;2022-10-16T03:02:10;14.40;82.40
15394;DHT22;7795;47.986;11.868;2022-10-16T03:04:36;14.40;82.50
15394;DHT22;7795;47.986;11.868;2022-10-16T03:07:02;14.40;82.50
15394;DHT22;7795;47.986;11.868;2022-10-16T03:09:29;14.40;82.50
15394;DHT22;7795;47.986;11.868;2022-10-16T03:11:55;14.40;82.50
15394;DHT22;7795;47.986;11.868;2022-10-16T03:14:21;14.30;82.30
15394;DHT22;7795;47.986;11.868;2022-10-16T03:16:47;14.30;82.30
15394;DHT22;7795;47.986;11.868;2022-10-16T03:19:12;14.30;82.40
15394;DHT22;7795;47.986;11.868;2022-10-16T03:21:38;14.30;82.50
15394;DHT22;7795;47.986;11.868;2022-10-16T03:24:04;14.30;82.50
15394;DHT22;7795;47.986;11.868;2022-10-16T03:26:32;14.20;82.40
15394;DHT22;7795;47.986;11.868;2022-10-16T03:28:57;14.20;82.50
15394;DHT22;7795;47.986;11.868;2022-10-16T03:31:23;14.20;82.50
15394;DHT22;7795;47.986;11.868;2022-10-16T03:33:49;14.10;82.60
15394;DHT22;7795;47.986;11.868;2022-10-16T03:36:14;14.20;82.70
15394;DHT22;7795;47.986;11.868;2022-10-16T03:38:40;14.10;82.70
15394;DHT22;7795;47.986;11.868;2022-10-16T03:41:06;14.10;82.80
15394;DHT22;7795;47.986;11.868;2022-10-16T03:43:34;14.10;82.80
15394;DHT22;7795;47.986;11.868;2022-10-16T03:46:00;14.10;82.80
15394;DHT22;7795;47.986;11.868;2022-10-16T03:48:25;14.10;82.80
15394;DHT22;7795;47.986;11.868;2022-10-16T03:50:51;14.00;82.80
15394;DHT22;7795;47.986;11.868;2022-10-16T03:53:17;14.00;82.80
15394;DHT22;7795;47.986;11.868;2022-10-16T03:55:43;14.00;82.80
15394;DHT22;7795;47.986;11.868;2022-10-16T03:58:09;14.00;82.90
15394;DHT22;7795;47.986;11.868;2022-10-16T04:00:40;14.00;82.90
15394;DHT22;7795;47.986;11.868;2022-10-16T04:03:06;14.00;83.00
15394;DHT22;7795;47.986;11.868;2022-10-16T04:05:31;13.90;82.90
15394;DHT22;7795;47.986;11.868;2022-10-16T04:07:57;13.90;82.90
15394;DHT22;7795;47.986;11.868;2022-10-16T04:10:23;13.90;83.00
15394;DHT22;7795;47.986;11.868;2022-10-16T04:12:48;13.90;83.20
15394;DHT22;7795;47.986;11.868;2022-10-16T04:15:14;13.90;84.00
15394;DHT22;7795;47.986;11.868;2022-10-16T04:17:41;13.90;83.20
15394;DHT22;7795;47.986;11.868;2022-10-16T04:20:07;13.90;84.00
15394;DHT22;7795;47.986;11.868;2022-10-16T04:22:33;13.90;83.20
15394;DHT22;7795;47.986;11.868;2022-10-16T04:24:59;13.90;83.20
15394;DHT22;7795;47.986;11.868;2022-10-16T04:27:25;13.90;83.30
15394;DHT22;7795;47.986;11.868;2022-10-16T04:29:50;13.90;83.30
15394;DHT22;7795;47.986;11.868;2022-10-16T04:32:16;13.90;83.30
15394;DHT22;7795;47.986;11.868;2022-10-16T04:34:43;13.90;83.50
15394;DHT22;7795;47.986;11.868;2022-10-16T04:37:09;13.90;83.60
15394;DHT22;7795;47.986;11.868;2022-10-16T04:39:35;13.90;83.60
15394;DHT22;7795;47.986;11.868;2022-10-16T04:42:00;13.90;83.50
15394;DHT22;7795;47.986;11.868;2022-10-16T04:44:26;13.90;83.50
15394;DHT22;7795;47.986;11.868;2022-10-16T04:46:52;13.90;83.60
15394;DHT22;7795;47.986;11.868;2022-10-16T04:49:18;13.90;83.60
15394;DHT22;7795;47.986;11.868;2022-10-16T04:51:45;13.90;83.70
15394;DHT22;7795;47.986;11.868;2022-10-16T04:54:10;13.90;83.70
15394;DHT22;7795;47.986;11.868;2022-10-16T04:56:36;14.00;83.80
15394;DHT22;7795;47.986;11.868;2022-10-16T04:59:08;14.00;83.80
15394;DHT22;7795;47.986;11.868;2022-10-16T05:01:34;14.00;83.80
15394;DHT22;7795;47.986;11.868;2022-10-16T05:04:00;14.00;83.90
15394;DHT22;7795;47.986;11.868;2022-10-16T05:06:27;14.00;83.90
15394;DHT22;7795;47.986;11.868;2022-10-16T05:08:54;14.00;83.90
15394;DHT22;7795;47.986;11.868;2022-10-16T05:11:19;14.00;83.80
15394;DHT22;7795;47.986;11.868;2022-10-16T05:13:45;14.00;83.80
15394;DHT22;7795;47.986;11.868;2022-10-16T05:16:11;14.10;83.80
15394;DHT22;7795;47.986;11.868;2022-10-16T05:18:37;14.10;83.80
15394;DHT22;7795;47.986;11.868;2022-10-16T05:21:02;14.10;83.80
15394;DHT22;7795;47.986;11.868;2022-10-16T05:23:28;14.10;83.80
15394;DHT22;7795;47.986;11.868;2022-10-16T05:25:56;14.10;83.80
15394;DHT22;7795;47.986;11.868;2022-10-16T05:28:24;14.10;83.90
15394;DHT22;7795;47.986;11.868;2022-10-16T05:30:50;14.10;83.80
15394;DHT22;7795;47.986;11.868;2022-10-16T05:33:16;14.10;83.80
15394;DHT22;7795;47.986;11.868;2022-10-16T05:35:42;14.10;83.80
15394;DHT22;7795;47.986;11.868;2022-10-16T05:38:08;14.10;83.90
15394;DHT22;7795;47.986;11.868;2022-10-16T05:40:33;14.10;84.00
15394;DHT22;7795;47.986;11.868;2022-10-16T05:43:00;14.10;84.10
15394;DHT22;7795;47.986;11.868;2022-10-16T05:45:26;14.20;84.20
15394;DHT22;7795;47.986;11.868;2022-10-16T05:47:52;14.20;84.10
15394;DHT22;7795;47.986;11.868;2022-10-16T05:50:18;14.20;84.80
15394;DHT22;7795;47.986;11.868;2022-10-16T05:52:43;14.20;84.10
15394;DHT22;7795;47.986;11.868;2022-10-16T05:55:09;14.20;84.10
15394;DHT22;7795;47.986;11.868;2022-10-16T05:57:35;14.20;84.20
15394;DHT22;7795;47.986;11.868;2022-10-16T06:00:03;14.20;84.20
15394;DHT22;7795;47.986;11.868;2022-10-16T06:02:29;14.20;84.30
15394;DHT22;7795;47.986;11.868;2022-10-16T06:04:54;14.30;84.30
15394;DHT22;7795;47.986;11.868;2022-10-16T06:07:20;14.30;84.30
15394;DHT22;7795;47.986;11.868;2022-10-16T06:09:48;14.30;84.30
15394;DHT22;7795;47.986;11.868;2022-10-16T06:12:14;14.30;84.30
15394;DHT22;7795;47.986;11.868;2022-10-16T06:14:39;14.30;84.30
15394;DHT22;7795;47.986;11.868;2022-10-16T06:17:07;14.30;84.30
15394;DHT22;7795;47.986;11.868;2022-10-16T06:19:32;14.30;84.30
15394;DHT22;7795;47.986;11.868;2022-10-16T06:21:58;14.40;84.30
15394;DHT22;7795;47.986;11.868;2022-10-16T06:24:24;14.40;84.40
15394;DHT22;7795;47.986;11.868;2022-10-16T06:26:49;14.40;84.50
15394;DHT22;7795;47.986;11.868;2022-10-16T06:29:15;14.40;84.50
15394;DHT22;7795;47.986;11.868;2022-10-16T06:31:41;14.40;84.60
15394;DHT22;7795;47.986;11.868;2022-10-16T06:34:09;14.50;84.80
15394;DHT22;7795;47.986;11.868;2022-10-16T06:36:36;14.50;84.90
15394;DHT22;7795;47.986;11.868;2022-10-16T06:39:03;14.60;84.90
15394;DHT22;7795;47.986;11.868;2022-10-16T06:41:28;14.60;84.90
15394;DHT22;7795;47.986;11.868;2022-10-16T06:43:54;14.70;85.10
15394;DHT22;7795;47.986;11.868;2022-10-16T06:46:22;14.70;85.10
15394;DHT22;7795;47.986;11.868;2022-10-16T06:48:49;14.80;85.10
15394;DHT22;7795;47.986;11.868;2022-10-16T06:51:17;14.80;85.10
15394;DHT22;7795;47.986;11.868;2022-10-16T06:53:45;14.90;85.20
15394;DHT22;7795;47.986;11.868;2022-10-16T06:56:12;14.90;85.20
15394;DHT22;7795;47.986;11.868;2022-10-16T06:58:39;15.00;85.20
15394;DHT22;7795;47.986;11.868;2022-10-16T07:01:05;15.00;85.20
15394;DHT22;7795;47.986;11.868;2022-10-16T07:03:31;15.10;85.30
15394;DHT22;7795;47.986;11.868;2022-10-16T07:05:57;15.20;85.40
15394;DHT22;7795;47.986;11.868;2022-10-16T07:08:28;15.20;85.50
15394;DHT22;7795;47.986;11.868;2022-10-16T07:10:59;15.30;85.70
15394;DHT22;7795;47.986;11.868;2022-10-16T07:13:25;15.40;85.90
15394;DHT22;7795;47.986;11.868;2022-10-16T07:15:51;15.40;85.80
15394;DHT22;7795;47.986;11.868;2022-10-16T07:18:16;15.50;85.80
15394;DHT22;7795;47.986;11.868;2022-10-16T07:20:42;15.50;85.80
15394;DHT22;7795;47.986;11.868;2022-10-16T07:23:08;15.60;85.80
15394;DHT22;7795;47.986;11.868;2022-10-16T07:25:35;15.70;85.80
15394;DHT22;7795;47.986;11.868;2022-10-16T07:28:01;15.80;85.80
15394;DHT22;7795;47.986;11.868;2022-10-16T07:30:26;15.80;85.70
15394;DHT22;7795;47.986;11.868;2022-10-16T07:32:52;15.90;85.80
15394;DHT22;7795;47.986;11.868;2022-10-16T07:35:18;15.90;85.70
15394;DHT22;7795;47.986;11.868;2022-10-16T07:37:44;16.00;85.80
15394;DHT22;7795;47.986;11.868;2022-10-16T07:40:10;16.10;85.90
15394;DHT22;7795;47.986;11.868;2022-10-16T07:42:37;16.20;86.00
15394;DHT22;7795;47.986;11.868;2022-10-16T07:45:04;16.20;86.00
15394;DHT22;7795;47.986;11.868;2022-10-16T07:47:30;16.30;86.00
15394;DHT22;7795;47.986;11.868;2022-10-16T07:49:56;16.40;86.00
15394;DHT22;7795;47.986;11.868;2022-10-16T07:52:21;16.50;86.10
15394;DHT22;7795;47.986;11.868;2022-10-16T07:54:47;16.60;86.20
15394;DHT22;7795;47.986;11.868;2022-10-16T07:57:13;16.60;86.20
15394;DHT22;7795;47.986;11.868;2022-10-16T07:59:46;16.70;86.20
15394;DHT22;7795;47.986;11.868;2022-10-16T08:02:11;16.90;86.30
15394;DHT22;7795;47.986;11.868;2022-10-16T08:04:37;16.90;86.10
15394;DHT22;7795;47.986;11.868;2022-10-16T08:07:03;17.00;86.10
15394;DHT22;7795;47.986;11.868;2022-10-16T08:09:29;17.10;86.10
15394;DHT22;7795;47.986;11.868;2022-10-16T08:11:55;17.20;86.10
15394;DHT22;7795;47.986;11.868;2022-10-16T08:14:20;17.30;86.00
15394;DHT22;7795;47.986;11.868;2022-10-16T08:16:47;17.50;85.90
15394;DHT22;7795;47.986;11.868;2022-10-16T08:19:13;17.60;85.80
15394;DHT22;7795;47.986;11.868;2022-10-16T08:21:40;17.70;85.50
15394;DHT22;7795;47.986;11.868;2022-10-16T08:24:06;17.80;85.40
15394;DHT22;7795;47.986;11.868;2022-10-16T08:26:32;17.90;85.30
15394;DHT22;7795;47.986;11.868;2022-10-16T08:28:58;18.00;85.30
15394;DHT22;7795;47.986;11.868;2022-10-16T08:31:24;18.10;85.30
15394;DHT22;7795;47.986;11.868;2022-10-16T08:33:51;18.20;85.50
15394;DHT22;7795;47.986;11.868;2022-10-16T08:36:17;18.30;86.40
15394;DHT22;7795;47.986;11.868;2022-10-16T08:38:43;18.30;85.60
15394;DHT22;7795;47.986;11.868;2022-10-16T08:41:23;18.50;85.60
15394;DHT22;7795;47.986;11.868;2022-10-16T08:44:15;18.60;85.80
15394;DHT22;7795;47.986;11.868;2022-10-16T08:46:49;18.70;85.80
15394;DHT22;7795;47.986;11.868;2022-10-16T08:49:19;18.80;85.40
15394;DHT22;7795;47.986;11.868;2022-10-16T08:51:45;18.90;85.20
15394;DHT22;7795;47.986;11.868;2022-10-16T08:54:21;19.00;85.10
15394;DHT22;7795;47.986;11.868;2022-10-16T08:56:48;19.10;84.90
15394;DHT22;7795;47.986;11.868;2022-10-16T08:59:16;19.20;84.80
15394;DHT22;7795;47.986;11.868;2022-10-16T09:01:44;19.30;84.40
15394;DHT22;7795;47.986;11.868;2022-10-16T09:04:40;19.40;84.40
15394;DHT22;7795;47.986;11.868;2022-10-16T09:07:13;19.50;84.60
15394;DHT22;7795;47.986;11.868;2022-10-16T09:09:53;19.60;84.40
15394;DHT22;7795;47.986;11.868;2022-10-16T09:12:27;19.70;84.20
15394;DHT22;7795;47.986;11.868;2022-10-16T09:15:01;19.80;83.90
15394;DHT22;7795;47.986;11.868;2022-10-16T09:17:37;19.90;83.50
15394;DHT22;7795;47.986;11.868;2022-10-16T09:20:17;20.00;83.20
15394;DHT22;7795;47.986;11.868;2022-10-16T09:22:43;20.10;83.00
15394;DHT22;7795;47.986;11.868;2022-10-16T09:25:12;20.20;83.00
15394;DHT22;7795;47.986;11.868;2022-10-16T09:27:38;20.30;82.60
15394;DHT22;7795;47.986;11.868;2022-10-16T09:30:11;20.40;83.30
15394;DHT22;7795;47.986;11.868;2022-10-16T09:32:38;20.40;82.10
15394;DHT22;7795;47.986;11.868;2022-10-16T09:35:13;20.50;82.20
15394;DHT22;7795;47.986;11.868;2022-10-16T09:37:39;20.60;81.80
15394;DHT22;7795;47.986;11.868;2022-10-16T09:40:11;20.70;82.00
15394;DHT22;7795;47.986;11.868;2022-10-16T09:42:37;20.70;81.70
15394;DHT22;7795;47.986;11.868;2022-10-16T09:45:04;20.80;81.70
15394;DHT22;7795;47.986;11.868;2022-10-16T09:47:31;20.90;81.50
15394;DHT22;7795;47.986;11.868;2022-10-16T09:49:58;21.00;81.40
15394;DHT22;7795;47.986;11.868;2022-10-16T09:52:28;21.10;81.20
15394;DHT22;7795;47.986;11.868;2022-10-16T09:54:56;21.20;80.90
15394;DHT22;7795;47.986;11.868;2022-10-16T09:57:23;21.30;81.60
15394;DHT22;7795;47.986;11.868;2022-10-16T09:59:50;21.30;80.80
15394;DHT22;7795;47.986;11.868;2022-10-16T10:02:18;21.40;80.70
15394;DHT22;7795;47.986;11.868;2022-10-16T10:04:49;21.50;80.60
15394;DHT22;7795;47.986;11.868;2022-10-16T10:07:24;21.60;80.20
15394;DHT22;7795;47.986;11.868;2022-10-16T10:09:52;21.70;80.00
15394;DHT22;7795;47.986;11.868;2022-10-16T10:12:21;21.80;79.90
15394;DHT22;7795;47.986;11.868;2022-10-16T10:14:48;21.80;79.60
15394;DHT22;7795;47.986;11.868;2022-10-16T10:17:17;21.90;79.30
15394;DHT22;7795;47.986;11.868;2022-10-16T10:19:47;22.00;79.20
15394;DHT22;7795;47.986;11.868;2022-10-16T10:22:17;22.10;78.60
15394;DHT22;7795;47.986;11.868;2022-10-16T10:24:45;22.20;78.60
15394;DHT22;7795;47.986;11.868;2022-10-16T10:27:24;22.20;78.60
15394;DHT22;7795;47.986;11.868;2022-10-16T10:29:59;22.30;78.30
15394;DHT22;7795;47.986;11.868;2022-10-16T10:32:32;22.40;78.00
15394;DHT22;7795;47.986;11.868;2022-10-16T10:35:15;22.50;78.00
15394;DHT22;7795;47.986;11.868;2022-10-16T10:37:55;22.60;77.60
15394;DHT22;7795;47.986;11.868;2022-10-16T10:40:34;22.60;77.50
15394;DHT22;7795;47.986;11.868;2022-10-16T10:43:12;22.70;77.30
15394;DHT22;7795;47.986;11.868;2022-10-16T10:45:43;22.80;76.90
15394;DHT22;7795;47.986;11.868;2022-10-16T10:48:22;22.90;77.90
15394;DHT22;7795;47.986;11.868;2022-10-16T10:50:51;23.00;75.90
15394;DHT22;7795;47.986;11.868;2022-10-16T10:53:24;23.10;76.50
15394;DHT22;7795;47.986;11.868;2022-10-16T10:56:08;23.20;76.10
15394;DHT22;7795;47.986;11.868;2022-10-16T10:59:01;23.20;75.30
15394;DHT22;7795;47.986;11.868;2022-10-16T11:01:37;23.30;74.70
15394;DHT22;7795;47.986;11.868;2022-10-16T11:06:57;23.50;74.60
15394;DHT22;7795;47.986;11.868;2022-10-16T11:09:25;23.50;74.90
15394;DHT22;7795;47.986;11.868;2022-10-16T11:11:56;23.60;74.60
15394;DHT22;7795;47.986;11.868;2022-10-16T11:14:29;23.60;74.00
15394;DHT22;7795;47.986;11.868;2022-10-16T11:16:58;23.70;73.10
15394;DHT22;7795;47.986;11.868;2022-10-16T11:19:34;23.80;73.50
15394;DHT22;7795;47.986;11.868;2022-10-16T11:22:07;23.90;72.60
15394;DHT22;7795;47.986;11.868;2022-10-16T11:24:44;23.90;73.20
15394;DHT22;7795;47.986;11.868;2022-10-16T11:27:16;24.00;72.20
15394;DHT22;7795;47.986;11.868;2022-10-16T11:29:48;24.10;72.30
15394;DHT22;7795;47.986;11.868;2022-10-16T11:32:21;24.10;71.90
15394;DHT22;7795;47.986;11.868;2022-10-16T11:34:50;24.20;72.30
15394;DHT22;7795;47.986;11.868;2022-10-16T11:37:19;24.30;71.40
15394;DHT22;7795;47.986;11.868;2022-10-16T11:39:46;24.30;71.00
15394;DHT22;7795;47.986;11.868;2022-10-16T11:42:16;24.30;71.00
15394;DHT22;7795;47.986;11.868;2022-10-16T11:44:51;24.40;70.50
15394;DHT22;7795;47.986;11.868;2022-10-16T11:47:31;24.50;70.20
15394;DHT22;7795;47.986;11.868;2022-10-16T11:50:02;24.50;70.00
15394;DHT22;7795;47.986;11.868;2022-10-16T11:52:33;24.60;70.20
15394;DHT22;7795;47.986;11.868;2022-10-16T11:55:05;24.60;70.20
15394;DHT22;7795;47.986;11.868;2022-10-16T11:57:39;24.70;70.20
15394;DHT22;7795;47.986;11.868;2022-10-16T12:00:14;24.80;69.60
15394;DHT22;7795;47.986;11.868;2022-10-16T12:02:54;24.80;69.30
15394;DHT22;7795;47.986;11.868;2022-10-16T12:05:25;24.90;68.60
15394;DHT22;7795;47.986;11.868;2022-10-16T12:08:02;24.90;68.20
15394;DHT22;7795;47.986;11.868;2022-10-16T12:10:31;24.90;68.00
15394;DHT22;7795;47.986;11.868;2022-10-16T12:12:57;25.00;68.60
15394;DHT22;7795;47.986;11.868;2022-10-16T12:15:26;25.00;68.20
15394;DHT22;7795;47.986;11.868;2022-10-16T12:17:53;25.10;67.90
15394;DHT22;7795;47.986;11.868;2022-10-16T12:20:28;25.10;68.10
15394;DHT22;7795;47.986;11.868;2022-10-16T12:22:58;25.20;67.00
15394;DHT22;7795;47.986;11.868;2022-10-16T12:25:27;25.20;67.60
15394;DHT22;7795;47.986;11.868;2022-10-16T12:28:01;25.30;67.30
15394;DHT22;7795;47.986;11.868;2022-10-16T12:30:31;25.30;66.90
15394;DHT22;7795;47.986;11.868;2022-10-16T12:32:58;25.40;67.00
15394;DHT22;7795;47.986;11.868;2022-10-16T12:35:27;25.40;67.10
15394;DHT22;7795;47.986;11.868;2022-10-16T12:38:05;25.40;66.70
15394;DHT22;7795;47.986;11.868;2022-10-16T12:40:34;25.50;64.50
15394;DHT22;7795;47.986;11.868;2022-10-16T12:43:11;25.50;65.00
15394;DHT22;7795;47.986;11.868;2022-10-16T12:45:39;25.50;62.90
15394;DHT22;7795;47.986;11.868;2022-10-16T12:48:18;25.50;64.10
15394;DHT22;7795;47.986;11.868;2022-10-16T12:50:45;25.60;62.50
15394;DHT22;7795;47.986;11.868;2022-10-16T12:53:19;25.60;64.00
15394;DHT22;7795;47.986;11.868;2022-10-16T12:55:52;25.60;62.50
15394;DHT22;7795;47.986;11.868;2022-10-16T12:58:38;25.70;62.50
15394;DHT22;7795;47.986;11.868;2022-10-16T13:01:29;25.70;61.70
15394;DHT22;7795;47.986;11.868;2022-10-16T13:04:29;25.80;61.70
15394;DHT22;7795;47.986;11.868;2022-10-16T13:07:30;25.80;61.50
15394;DHT22;7795;47.986;11.868;2022-10-16T13:10:09;25.80;60.90
15394;DHT22;7795;47.986;11.868;2022-10-16T13:12:53;25.90;61.00
15394;DHT22;7795;47.986;11.868;2022-10-16T13:15:30;25.90;60.50
15394;DHT22;7795;47.986;11.868;2022-10-16T13:18:06;25.90;60.50
15394;DHT22;7795;47.986;11.868;2022-10-16T13:20:57;25.90;59.70
15394;DHT22;7795;47.986;11.868;2022-10-16T13:23:28;25.90;60.00
15394;DHT22;7795;47.986;11.868;2022-10-16T13:26:06;26.00;61.00
15394;DHT22;7795;47.986;11.868;2022-10-16T13:28:35;26.00;60.70
15394;DHT22;7795;47.986;11.868;2022-10-16T13:31:03;26.00;61.10
15394;DHT22;7795;47.986;11.868;2022-10-16T13:33:33;26.10;60.90
15394;DHT22;7795;47.986;11.868;2022-10-16T13:36:01;26.10;60.00
15394;DHT22;7795;47.986;11.868;2022-10-16T13:38:29;26.10;59.90
15394;DHT22;7795;47.986;11.868;2022-10-16T13:40:58;26.10;59.50
15394;DHT22;7795;47.986;11.868;2022-10-16T13:43:29;26.10;58.60
15394;DHT22;7795;47.986;11.868;2022-10-16T13:45:59;26.10;58.10
15394;DHT22;7795;47.986;11.868;2022-10-16T13:48:25;26.10;58.60
15394;DHT22;7795;47.986;11.868;2022-10-16T13:51:04;26.20;59.20
15394;DHT22;7795;47.986;11.868;2022-10-16T13:53:32;26.20;58.90
15394;DHT22;7795;47.986;11.868;2022-10-16T13:55:57;26.20;59.90
15394;DHT22;7795;47.986;11.868;2022-10-16T13:58:25;26.20;60.00
15394;DHT22;7795;47.986;11.868;2022-10-16T14:00:56;26.20;60.10
15394;DHT22;7795;47.986;11.868;2022-10-16T14:03:24;26.20;59.90
15394;DHT22;7795;47.986;11.868;2022-10-16T14:05:52;26.20;59.90
15394;DHT22;7795;47.986;11.868;2022-10-16T14:08:19;26.20;59.90
15394;DHT22;7795;47.986;11.868;2022-10-16T14:10:48;26.20;59.90
15394;DHT22;7795;47.986;11.868;2022-10-16T14:13:18;26.20;59.70
15394;DHT22;7795;47.986;11.868;2022-10-16T14:15:47;26.20;59.70
15394;DHT22;7795;47.986;11.868;2022-10-16T14:18:18;26.20;59.40
15394;DHT22;7795;47.986;11.868;2022-10-16T14:20:44;26.20;59.00
15394;DHT22;7795;47.986;11.868;2022-10-16T14:23:22;26.20;59.10
15394;DHT22;7795;47.986;11.868;2022-10-16T14:25:48;26.20;58.60
15394;DHT22;7795;47.986;11.868;2022-10-16T14:28:17;26.20;59.20
15394;DHT22;7795;47.986;11.868;2022-10-16T14:30:50;26.20;59.30
15394;DHT22;7795;47.986;11.868;2022-10-16T14:33:21;26.20;58.80
15394;DHT22;7795;47.986;11.868;2022-10-16T14:36:00;26.20;59.00
15394;DHT22;7795;47.986;11.868;2022-10-16T14:38:28;26.20;59.00
15394;DHT22;7795;47.986;11.868;2022-10-16T14:40:57;26.20;59.30
15394;DHT22;7795;47.986;11.868;2022-10-16T14:43:29;26.20;59.50
15394;DHT22;7795;47.986;11.868;2022-10-16T14:45:57;26.10;59.30
15394;DHT22;7795;47.986;11.868;2022-10-16T14:48:23;26.10;59.90
15394;DHT22;7795;47.986;11.868;2022-10-16T14:50:49;26.10;58.90
15394;DHT22;7795;47.986;11.868;2022-10-16T14:53:15;26.10;59.00
15394;DHT22;7795;47.986;11.868;2022-10-16T14:55:43;26.10;59.20
15394;DHT22;7795;47.986;11.868;2022-10-16T14:58:14;26.10;58.50
15394;DHT22;7795;47.986;11.868;2022-10-16T15:00:40;26.10;58.50
15394;DHT22;7795;47.986;11.868;2022-10-16T15:03:06;26.00;59.00
15394;DHT22;7795;47.986;11.868;2022-10-16T15:05:32;26.00;59.10
15394;DHT22;7795;47.986;11.868;2022-10-16T15:07:58;26.00;58.90
15394;DHT22;7795;47.986;11.868;2022-10-16T15:10:26;25.90;59.00
15394;DHT22;7795;47.986;11.868;2022-10-16T15:12:54;25.90;59.00
15394;DHT22;7795;47.986;11.868;2022-10-16T15:15:34;25.90;59.10
15394;DHT22;7795;47.986;11.868;2022-10-16T15:18:00;25.90;58.70
15394;DHT22;7795;47.986;11.868;2022-10-16T15:20:27;25.80;59.00
15394;DHT22;7795;47.986;11.868;2022-10-16T15:22:53;25.80;59.00
15394;DHT22;7795;47.986;11.868;2022-10-16T15:25:30;25.80;59.20
15394;DHT22;7795;47.986;11.868;2022-10-16T15:27:59;25.70;59.00
15394;DHT22;7795;47.986;11.868;2022-10-16T15:30:25;25.70;59.50
15394;DHT22;7795;47.986;11.868;2022-10-16T15:32:51;25.60;59.90
15394;DHT22;7795;47.986;11.868;2022-10-16T15:35:17;25.60;60.00
15394;DHT22;7795;47.986;11.868;2022-10-16T15:37:43;25.50;60.20
15394;DHT22;7795;47.986;11.868;2022-10-16T15:40:10;25.50;60.50
15394;DHT22;7795;47.986;11.868;2022-10-16T15:42:36;25.40;60.70
15394;DHT22;7795;47.986;11.868;2022-10-16T15:45:03;25.30;61.50
15394;DHT22;7795;47.986;11.868;2022-10-16T15:47:29;25.30;61.10